Time,TemperatureF,DewpointF,PressureIn,WindDirection,WindDirectionDegrees,WindSpeedMPH,WindSpeedGustMPH,Humidity,HourlyPrecipIn,Conditions,Clouds,dailyrainin,SolarRadiationWatts/m^2,SoftwareType,DateUTC
2013-07-26 00:02:00,59.3,58.0,30.04,East,100,3.0,5.0,96,0.00,,,0.01,0,weatherlink.com 1.10,2013-07-26 04:02:00,
2013-07-26 00:19:00,59.4,58.0,30.04,East,90,3.0,6.0,96,0.00,,,0.01,0,weatherlink.com 1.10,2013-07-26 04:19:00,
2013-07-26 00:35:00,59.4,58.0,30.04,ENE,65,0.0,5.0,96,0.00,,,0.01,0,weatherlink.com 1.10,2013-07-26 04:35:00,
2013-07-26 00:51:00,59.4,58.0,30.04,East,81,1.0,2.0,96,0.00,,,0.01,0,weatherlink.com 1.10,2013-07-26 04:51:00,
2013-07-26 01:08:00,59.5,58.0,30.04,ENE,59,0.0,3.0,96,0.00,,,0.01,0,weatherlink.com 1.10,2013-07-26 05:08:00,
2013-07-26 01:23:00,59.5,58.0,30.03,East,98,3.0,5.0,96,0.01,,,0.00,0,weatherlink.com 1.10,2013-07-26 05:23:00,
2013-07-26 01:39:00,59.5,58.0,30.04,NE,36,0.0,5.0,96,0.01,,,0.00,0,weatherlink.com 1.10,2013-07-26 05:39:00,
2013-07-26 01:55:00,59.5,58.0,30.03,East,98,3.0,5.0,96,0.01,,,0.00,0,weatherlink.com 1.10,2013-07-26 05:55:00,
2013-07-26 02:11:00,59.5,58.0,30.02,ESE,114,0.0,6.0,96,0.01,,,0.00,0,weatherlink.com 1.10,2013-07-26 06:11:00,
2013-07-26 02:27:00,59.4,58.0,30.02,ENE,57,2.0,6.0,96,0.01,,,0.01,0,weatherlink.com 1.10,2013-07-26 06:27:00,
2013-07-26 02:43:00,59.4,58.0,30.01,ENE,70,2.0,8.0,96,0.01,,,0.01,0,weatherlink.com 1.10,2013-07-26 06:43:00,
2013-07-26 03:00:00,59.4,58.0,30.01,ENE,59,1.0,4.0,96,0.01,,,0.01,0,weatherlink.com 1.10,2013-07-26 07:00:00,
2013-07-26 03:16:00,59.3,58.0,30.01,NNE,27,1.0,6.0,96,0.01,,,0.01,0,weatherlink.com 1.10,2013-07-26 07:16:00,
2013-07-26 03:31:00,59.4,58.0,30.01,NNE,19,0.0,5.0,96,0.00,,,0.01,0,weatherlink.com 1.10,2013-07-26 07:31:00,
2013-07-26 03:47:00,59.5,58.0,30.01,NE,36,3.0,5.0,96,0.00,,,0.01,0,weatherlink.com 1.10,2013-07-26 07:47:00,
2013-07-26 04:03:00,59.5,58.0,30.01,NE,47,1.0,5.0,96,0.01,,,0.02,0,weatherlink.com 1.10,2013-07-26 08:03:00,
2013-07-26 04:19:00,59.5,58.0,30.00,East,88,3.0,5.0,96,0.02,,,0.03,0,weatherlink.com 1.10,2013-07-26 08:19:00,
2013-07-26 04:36:00,59.4,58.0,30.00,North,350,0.0,4.0,96,0.02,,,0.03,0,weatherlink.com 1.10,2013-07-26 08:36:00,
2013-07-26 04:52:00,59.4,58.0,30.00,NW,325,4.0,5.0,96,0.02,,,0.03,0,weatherlink.com 1.10,2013-07-26 08:52:00,
2013-07-26 05:07:00,59.4,58.0,30.00,NE,47,0.0,6.0,96,0.01,,,0.03,0,weatherlink.com 1.10,2013-07-26 09:07:00,
2013-07-26 05:23:00,59.4,58.0,30.00,ENE,59,2.0,7.0,96,0.00,,,0.03,0,weatherlink.com 1.10,2013-07-26 09:23:00,
2013-07-26 05:40:00,59.4,58.0,30.00,NE,51,3.0,9.0,96,0.00,,,0.03,0,weatherlink.com 1.10,2013-07-26 09:40:00,
2013-07-26 05:56:00,59.5,58.0,30.01,NNE,28,0.0,6.0,96,0.00,,,0.03,0,weatherlink.com 1.10,2013-07-26 09:56:00,
2013-07-26 06:12:00,59.6,59.0,30.02,NNW,346,2.0,4.0,96,0.00,,,0.03,0,weatherlink.com 1.10,2013-07-26 10:12:00,
2013-07-26 06:28:00,59.7,59.0,30.01,NNW,341,1.0,6.0,96,0.00,,,0.03,5,weatherlink.com 1.10,2013-07-26 10:28:00,
2013-07-26 06:45:00,59.8,59.0,30.01,NW,311,0.0,2.0,96,0.00,,,0.03,12,weatherlink.com 1.10,2013-07-26 10:45:00,
2013-07-26 07:00:00,59.9,59.0,30.01,North,360,1.0,5.0,96,0.00,,,0.03,23,weatherlink.com 1.10,2013-07-26 11:00:00,
2013-07-26 07:16:00,60.0,59.0,30.02,NW,308,3.0,5.0,96,0.01,,,0.04,9,weatherlink.com 1.10,2013-07-26 11:16:00,
2013-07-26 07:32:00,60.1,59.0,30.01,NE,39,0.0,2.0,96,0.02,,,0.05,21,weatherlink.com 1.10,2013-07-26 11:32:00,
2013-07-26 07:48:00,60.0,59.0,30.02,NE,46,2.0,4.0,96,0.03,,,0.06,12,weatherlink.com 1.10,2013-07-26 11:48:00,
2013-07-26 08:04:00,60.0,59.0,30.02,NNE,13,1.0,2.0,96,0.05,,,0.08,11,weatherlink.com 1.10,2013-07-26 12:04:00,
2013-07-26 08:21:00,59.9,59.0,30.01,East,80,5.0,6.0,96,0.05,,,0.09,26,weatherlink.com 1.10,2013-07-26 12:21:00,
2013-07-26 08:37:00,59.9,59.0,30.01,ENE,63,3.0,11.0,96,0.06,,,0.11,44,weatherlink.com 1.10,2013-07-26 12:37:00,
2013-07-26 08:52:00,60.0,59.0,30.00,East,94,3.0,9.0,97,0.05,,,0.12,79,weatherlink.com 1.10,2013-07-26 12:52:00,
2013-07-26 09:08:00,60.8,60.0,30.00,ESE,112,2.0,11.0,97,0.04,,,0.12,127,weatherlink.com 1.10,2013-07-26 13:08:00,
2013-07-26 09:25:00,60.8,60.0,30.00,ENE,78,2.0,11.0,97,0.03,,,0.12,63,weatherlink.com 1.10,2013-07-26 13:25:00,
2013-07-26 09:41:00,60.7,60.0,30.01,NNW,331,3.0,6.0,96,0.01,,,0.12,62,weatherlink.com 1.10,2013-07-26 13:41:00,
2013-07-26 09:57:00,61.0,60.0,30.02,NNW,330,1.0,5.0,96,0.00,,,0.12,77,weatherlink.com 1.10,2013-07-26 13:57:00,
2013-07-26 10:13:00,61.7,61.0,30.02,NNE,19,0.0,2.0,97,0.00,,,0.12,107,weatherlink.com 1.10,2013-07-26 14:13:00,
2013-07-26 10:28:00,61.5,61.0,30.02,NNW,340,0.0,3.0,97,0.01,,,0.13,98,weatherlink.com 1.10,2013-07-26 14:28:00,
2013-07-26 10:45:00,62.1,61.0,30.02,NNE,22,0.0,3.0,97,0.01,,,0.13,123,weatherlink.com 1.10,2013-07-26 14:45:00,
2013-07-26 11:01:00,62.5,61.0,30.01,NE,53,0.0,2.0,96,0.01,,,0.13,214,weatherlink.com 1.10,2013-07-26 15:01:00,
2013-07-26 11:17:00,63.8,62.0,30.01,East,95,3.0,5.0,95,0.01,,,0.13,308,weatherlink.com 1.10,2013-07-26 15:17:00,
2013-07-26 11:50:00,65.2,63.0,30.01,NNE,17,0.0,5.0,92,0.00,,,0.13,343,weatherlink.com 1.10,2013-07-26 15:50:00,
2013-07-26 12:06:00,65.9,63.0,30.01,North,5,1.0,6.0,90,0.00,,,0.13,330,weatherlink.com 1.10,2013-07-26 16:06:00,
2013-07-26 12:21:00,66.3,62.0,30.01,North,350,4.0,8.0,85,0.00,,,0.13,330,weatherlink.com 1.10,2013-07-26 16:21:00,
2013-07-26 12:37:00,67.1,63.0,30.01,NW,304,1.0,6.0,87,0.00,,,0.13,343,weatherlink.com 1.10,2013-07-26 16:37:00,
2013-07-26 12:54:00,67.8,63.0,30.00,NNW,334,0.0,2.0,85,0.00,,,0.13,348,weatherlink.com 1.10,2013-07-26 16:54:00,
2013-07-26 13:10:00,66.8,63.0,30.00,NW,316,4.0,8.0,87,0.01,,,0.14,339,weatherlink.com 1.10,2013-07-26 17:10:00,
2013-07-26 13:26:00,67.2,64.0,30.00,NNW,348,5.0,6.0,90,0.01,,,0.14,441,weatherlink.com 1.10,2013-07-26 17:26:00,
2013-07-26 13:41:00,67.4,64.0,30.00,NW,316,1.0,5.0,89,0.01,,,0.14,329,weatherlink.com 1.10,2013-07-26 17:41:00,
2013-07-26 13:58:00,68.1,65.0,30.00,NW,320,0.0,5.0,88,0.01,,,0.14,348,weatherlink.com 1.10,2013-07-26 17:58:00,
2013-07-26 14:14:00,69.4,64.0,30.00,NW,304,1.0,6.0,83,0.00,,,0.14,415,weatherlink.com 1.10,2013-07-26 18:14:00,
2013-07-26 14:30:00,71.1,65.0,29.99,NNW,331,4.0,6.0,80,0.00,,,0.14,497,weatherlink.com 1.10,2013-07-26 18:30:00,
2013-07-26 14:47:00,72.3,65.0,29.99,NNW,329,3.0,7.0,77,0.00,,,0.14,450,weatherlink.com 1.10,2013-07-26 18:47:00,
2013-07-26 15:03:00,72.3,64.0,29.99,NW,318,2.0,8.0,75,0.00,,,0.14,410,weatherlink.com 1.10,2013-07-26 19:03:00,
2013-07-26 15:18:00,72.1,64.0,29.99,NNE,18,3.0,8.0,75,0.00,,,0.14,406,weatherlink.com 1.10,2013-07-26 19:18:00,
2013-07-26 15:34:00,76.1,66.0,29.99,NNE,30,0.0,8.0,71,0.00,,,0.14,870,weatherlink.com 1.10,2013-07-26 19:34:00,
2013-07-26 15:51:00,75.8,65.0,29.98,North,355,5.0,9.0,69,0.00,,,0.14,731,weatherlink.com 1.10,2013-07-26 19:51:00,
2013-07-26 16:07:00,75.2,64.0,29.98,NW,315,7.0,9.0,68,0.00,,,0.14,700,weatherlink.com 1.10,2013-07-26 20:07:00,
2013-07-26 16:23:00,75.4,63.0,29.98,NW,319,1.0,7.0,66,0.00,,,0.14,605,weatherlink.com 1.10,2013-07-26 20:23:00,
2013-07-26 16:39:00,76.2,64.0,29.98,WNW,300,9.0,9.0,66,0.00,,,0.14,571,weatherlink.com 1.10,2013-07-26 20:39:00,
2013-07-26 16:54:00,75.6,63.0,29.98,WNW,291,5.0,12.0,64,0.00,,,0.14,534,weatherlink.com 1.10,2013-07-26 20:54:00,
2013-07-26 17:10:00,75.3,61.0,29.98,NW,311,9.0,12.0,61,0.00,,,0.14,478,weatherlink.com 1.10,2013-07-26 21:10:00,
2013-07-26 17:27:00,75.1,62.0,29.97,North,351,1.0,9.0,63,0.00,,,0.14,432,weatherlink.com 1.10,2013-07-26 21:27:00,
2013-07-26 17:43:00,74.9,62.0,29.98,WNW,285,1.0,6.0,64,0.00,,,0.14,381,weatherlink.com 1.10,2013-07-26 21:43:00,
2013-07-26 17:59:00,74.0,61.0,29.98,NW,304,2.0,9.0,65,0.00,,,0.14,100,weatherlink.com 1.10,2013-07-26 21:59:00,
2013-07-26 18:15:00,73.5,62.0,29.98,NW,313,2.0,10.0,67,0.00,,,0.14,84,weatherlink.com 1.10,2013-07-26 22:15:00,
2013-07-26 18:32:00,72.9,61.0,29.99,NW,309,3.0,9.0,66,0.00,,,0.14,42,weatherlink.com 1.10,2013-07-26 22:32:00,
2013-07-26 18:48:00,72.4,60.0,29.99,NNW,333,2.0,6.0,66,0.00,,,0.14,35,weatherlink.com 1.10,2013-07-26 22:48:00,
2013-07-26 19:03:00,71.9,60.0,29.99,NW,316,5.0,6.0,67,0.00,,,0.14,37,weatherlink.com 1.10,2013-07-26 23:03:00,
2013-07-26 19:19:00,70.9,61.0,29.99,NNE,31,0.0,3.0,71,0.00,,,0.14,28,weatherlink.com 1.10,2013-07-26 23:19:00,
2013-07-26 19:35:00,70.4,61.0,30.00,NW,323,0.0,3.0,72,0.00,,,0.14,58,weatherlink.com 1.10,2013-07-26 23:35:00,
2013-07-26 19:51:00,69.1,61.0,30.00,NNW,339,1.0,3.0,75,0.00,,,0.14,16,weatherlink.com 1.10,2013-07-26 23:51:00,
2013-07-26 20:07:00,67.1,61.0,30.00,NNW,339,0.0,1.0,80,0.00,,,0.14,7,weatherlink.com 1.10,2013-07-27 00:07:00,
2013-07-26 20:24:00,65.4,61.0,30.00,NNW,339,0.0,0.0,85,0.00,,,0.14,0,weatherlink.com 1.10,2013-07-27 00:24:00,
2013-07-26 20:40:00,64.0,60.0,30.01,NNW,339,0.0,0.0,88,0.00,,,0.14,0,weatherlink.com 1.10,2013-07-27 00:40:00,
2013-07-26 20:55:00,62.8,60.0,30.01,NNW,339,0.0,0.0,90,0.00,,,0.14,0,weatherlink.com 1.10,2013-07-27 00:55:00,
2013-07-26 21:27:00,62.5,60.0,30.02,NNW,339,0.0,0.0,91,0.00,,,0.14,0,weatherlink.com 1.10,2013-07-27 01:27:00,
2013-07-26 21:44:00,62.3,60.0,30.02,NNW,339,0.0,0.0,91,0.00,,,0.14,0,weatherlink.com 1.10,2013-07-27 01:44:00,
2013-07-26 22:00:00,61.9,60.0,30.02,NNW,339,0.0,0.0,92,0.00,,,0.14,0,weatherlink.com 1.10,2013-07-27 02:00:00,
2013-07-26 22:16:00,61.5,59.0,30.02,NNW,339,0.0,0.0,92,0.00,,,0.14,0,weatherlink.com 1.10,2013-07-27 02:16:00,
2013-07-26 22:31:00,61.1,59.0,30.02,NNW,339,0.0,0.0,92,0.00,,,0.14,0,weatherlink.com 1.10,2013-07-27 02:31:00,
2013-07-26 22:47:00,60.6,59.0,30.02,NNW,339,0.0,1.0,93,0.00,,,0.14,0,weatherlink.com 1.10,2013-07-27 02:47:00,
2013-07-26 23:03:00,60.3,58.0,30.02,NNW,339,0.0,0.0,93,0.00,,,0.14,0,weatherlink.com 1.10,2013-07-27 03:03:00,
2013-07-26 23:19:00,60.0,58.0,30.02,NNW,339,0.0,0.0,94,0.00,,,0.14,0,weatherlink.com 1.10,2013-07-27 03:19:00,
2013-07-26 23:36:00,59.7,58.0,30.03,NNW,339,2.0,2.0,94,0.00,,,0.14,0,weatherlink.com 1.10,2013-07-27 03:36:00,
2013-07-26 23:52:00,59.5,58.0,30.04,NW,323,0.0,0.0,95,0.00,,,0.14,0,weatherlink.com 1.10,2013-07-27 03:52:00,